Time,TemperatureF,DewpointF,PressureIn,WindDirection,WindDirectionDegrees,WindSpeedMPH,WindSpeedGustMPH,Humidity,HourlyPrecipIn,Conditions,Clouds,dailyrainin,SoftwareType,DateUTC
2013-04-11 00:00:00,32.3,26.2,30.06,NNE,20,0.0,5.0,78,0.00,,,0.00,WUHU216DAVISVP2,2013-04-11 05:00:00,
2013-04-11 00:05:00,32.2,26.1,30.06,NNE,19,0.0,5.0,78,0.00,,,0.00,WUHU216DAVISVP2,2013-04-11 05:05:00,
2013-04-11 00:10:00,32.1,26.0,30.06,NNE,20,0.0,0.0,78,0.00,,,0.00,WUHU216DAVISVP2,2013-04-11 05:10:00,
2013-04-11 00:15:00,32.1,26.3,30.05,NNE,19,0.0,0.0,79,0.00,,,0.00,WUHU216DAVISVP2,2013-04-11 05:15:00,
2013-04-11 00:20:00,32.1,26.3,30.05,NNE,19,0.0,0.0,79,0.00,,,0.00,WUHU216DAVISVP2,2013-04-11 05:20:00,
2013-04-11 00:25:00,32.1,26.3,30.06,NNE,19,0.0,0.0,79,0.00,,,0.00,WUHU216DAVISVP2,2013-04-11 05:25:00,
2013-04-11 00:30:00,32.2,26.1,30.06,NNE,20,0.0,5.0,78,0.00,,,0.00,WUHU216DAVISVP2,2013-04-11 05:30:00,
2013-04-11 00:35:00,32.2,26.1,30.06,NNE,20,0.0,5.0,78,0.00,,,0.00,WUHU216DAVISVP2,2013-04-11 05:35:00,
2013-04-11 00:40:00,32.3,26.2,30.06,NNE,19,0.0,0.0,78,0.00,,,0.00,WUHU216DAVISVP2,2013-04-11 05:40:00,
2013-04-11 00:45:00,32.4,26.0,30.05,NNE,17,0.0,0.0,77,0.00,,,0.00,WUHU216DAVISVP2,2013-04-11 05:45:00,
2013-04-11 00:50:00,32.5,25.8,30.05,NNE,17,0.0,0.0,76,0.00,,,0.00,WUHU216DAVISVP2,2013-04-11 05:50:00,
2013-04-11 00:55:00,32.6,25.6,30.05,NNE,17,4.0,5.0,75,0.00,,,0.00,WUHU216DAVISVP2,2013-04-11 05:55:00,
2013-04-11 01:00:00,32.8,25.5,30.04,NNE,13,4.0,7.0,74,0.00,,,0.00,WUHU216DAVISVP2,2013-04-11 06:00:00,
2013-04-11 01:05:00,32.9,25.6,30.04,North,10,5.0,9.0,74,0.00,,,0.00,WUHU216DAVISVP2,2013-04-11 06:05:00,
2013-04-11 01:10:00,32.9,25.6,30.04,NNE,19,3.0,9.0,74,0.00,,,0.00,WUHU216DAVISVP2,2013-04-11 06:10:00,
2013-04-11 01:15:00,32.9,25.2,30.04,NNE,15,2.0,9.0,73,0.00,,,0.00,WUHU216DAVISVP2,2013-04-11 06:15:00,
2013-04-11 01:20:00,33.0,25.3,30.04,NNE,20,2.0,9.0,73,0.00,,,0.00,WUHU216DAVISVP2,2013-04-11 06:20:00,
2013-04-11 01:25:00,33.0,25.3,30.03,North,9,2.0,9.0,73,0.00,,,0.00,WUHU216DAVISVP2,2013-04-11 06:25:00,
2013-04-11 01:30:00,33.0,25.3,30.04,North,9,0.0,6.0,73,0.00,,,0.00,WUHU216DAVISVP2,2013-04-11 06:30:00,
2013-04-11 01:35:00,33.1,25.4,30.03,North,9,0.0,4.0,73,0.00,,,0.00,WUHU216DAVISVP2,2013-04-11 06:35:00,
2013-04-11 01:40:00,33.1,25.1,30.03,North,9,4.0,4.0,72,0.00,,,0.00,WUHU216DAVISVP2,2013-04-11 06:40:00,
2013-04-11 01:45:00,33.3,25.0,30.03,NNE,13,3.0,8.0,71,0.00,,,0.00,WUHU216DAVISVP2,2013-04-11 06:45:00,
2013-04-11 01:50:00,33.4,25.1,30.03,NNE,17,1.0,8.0,71,0.00,,,0.00,WUHU216DAVISVP2,2013-04-11 06:50:00,
2013-04-11 01:55:00,33.5,24.8,30.02,NNE,21,3.0,5.0,70,0.00,,,0.00,WUHU216DAVISVP2,2013-04-11 06:55:00,
2013-04-11 02:00:00,33.5,24.8,30.02,NNE,13,1.0,5.0,70,0.00,,,0.00,WUHU216DAVISVP2,2013-04-11 07:00:00,
2013-04-11 02:05:00,33.5,24.8,30.02,North,11,1.0,5.0,70,0.00,,,0.00,WUHU216DAVISVP2,2013-04-11 07:05:00,
2013-04-11 02:10:00,33.6,24.9,30.02,NNE,15,2.0,5.0,70,0.00,,,0.00,WUHU216DAVISVP2,2013-04-11 07:10:00,
2013-04-11 02:15:00,33.6,24.9,30.02,North,10,0.0,4.0,70,0.00,,,0.00,WUHU216DAVISVP2,2013-04-11 07:15:00,
2013-04-11 02:20:00,33.6,24.6,30.02,NNE,17,0.0,4.0,69,0.00,,,0.00,WUHU216DAVISVP2,2013-04-11 07:20:00,
2013-04-11 02:25:00,33.6,24.6,30.02,North,9,4.0,5.0,69,0.00,,,0.00,WUHU216DAVISVP2,2013-04-11 07:25:00,
2013-04-11 02:30:00,33.6,24.6,30.02,North,9,1.0,5.0,69,0.00,,,0.00,WUHU216DAVISVP2,2013-04-11 07:30:00,
2013-04-11 02:35:00,33.6,24.6,30.02,North,9,1.0,3.0,69,0.00,,,0.00,WUHU216DAVISVP2,2013-04-11 07:35:00,
2013-04-11 02:40:00,33.6,24.6,30.02,North,10,1.0,4.0,69,0.00,,,0.00,WUHU216DAVISVP2,2013-04-11 07:40:00,
2013-04-11 02:45:00,33.6,24.6,30.01,North,10,2.0,4.0,69,0.00,,,0.00,WUHU216DAVISVP2,2013-04-11 07:45:00,
2013-04-11 02:50:00,33.5,24.5,30.01,North,10,1.0,4.0,69,0.00,,,0.00,WUHU216DAVISVP2,2013-04-11 07:50:00,
2013-04-11 02:55:00,33.5,24.5,30.00,North,10,5.0,5.0,69,0.00,,,0.00,WUHU216DAVISVP2,2013-04-11 07:55:00,
2013-04-11 03:00:00,33.4,24.7,30.00,North,9,3.0,6.0,70,0.00,,,0.00,WUHU216DAVISVP2,2013-04-11 08:00:00,
2013-04-11 03:05:00,33.4,24.7,30.00,NNE,13,0.0,6.0,70,0.00,,,0.00,WUHU216DAVISVP2,2013-04-11 08:05:00,
2013-04-11 03:10:00,33.3,24.6,30.00,NNE,14,0.0,4.0,70,0.00,,,0.00,WUHU216DAVISVP2,2013-04-11 08:10:00,
2013-04-11 03:15:00,33.2,24.5,30.00,NNE,24,0.0,4.0,70,0.00,,,0.00,WUHU216DAVISVP2,2013-04-11 08:15:00,
2013-04-11 03:20:00,33.1,24.4,30.00,NNE,23,1.0,4.0,70,0.00,,,0.00,WUHU216DAVISVP2,2013-04-11 08:20:00,
2013-04-11 03:25:00,33.1,24.8,30.00,NNE,23,1.0,4.0,71,0.00,,,0.00,WUHU216DAVISVP2,2013-04-11 08:25:00,
2013-04-11 03:30:00,33.0,24.7,29.99,NNE,22,0.0,3.0,71,0.00,,,0.00,WUHU216DAVISVP2,2013-04-11 08:30:00,
2013-04-11 03:35:00,33.2,24.5,30.00,NNE,23,0.0,3.0,70,0.00,,,0.00,WUHU216DAVISVP2,2013-04-11 08:35:00,
2013-04-11 03:40:00,33.4,24.4,29.99,NNE,22,0.0,0.0,69,0.00,,,0.00,WUHU216DAVISVP2,2013-04-11 08:40:00,
2013-04-11 03:45:00,33.4,24.4,29.99,NNE,22,0.0,0.0,69,0.00,,,0.00,WUHU216DAVISVP2,2013-04-11 08:45:00,
2013-04-11 03:50:00,33.5,24.5,29.99,NNE,23,0.0,0.0,69,0.00,,,0.00,WUHU216DAVISVP2,2013-04-11 08:50:00,
2013-04-11 03:55:00,33.5,24.5,29.98,NNE,22,0.0,0.0,69,0.00,,,0.00,WUHU216DAVISVP2,2013-04-11 08:55:00,
2013-04-11 04:00:00,33.5,24.5,29.98,NNE,23,0.0,0.0,69,0.00,,,0.00,WUHU216DAVISVP2,2013-04-11 09:00:00,
2013-04-11 04:05:00,33.5,24.1,29.98,NNE,20,3.0,5.0,68,0.00,,,0.00,WUHU216DAVISVP2,2013-04-11 09:05:00,
2013-04-11 04:10:00,33.5,24.5,29.96,North,5,3.0,5.0,69,0.00,,,0.00,WUHU216DAVISVP2,2013-04-11 09:10:00,
2013-04-11 04:15:00,33.3,24.3,29.96,North,360,3.0,5.0,69,0.00,,,0.00,WUHU216DAVISVP2,2013-04-11 09:15:00,
2013-04-11 04:20:00,33.2,24.2,29.95,North,5,2.0,5.0,69,0.00,,,0.00,WUHU216DAVISVP2,2013-04-11 09:20:00,
2013-04-11 04:25:00,33.1,24.4,29.95,NNE,17,3.0,5.0,70,0.00,,,0.00,WUHU216DAVISVP2,2013-04-11 09:25:00,
2013-04-11 04:30:00,33.0,24.3,29.95,NNE,21,5.0,6.0,70,0.00,,,0.00,WUHU216DAVISVP2,2013-04-11 09:30:00,
2013-04-11 04:35:00,33.1,24.1,29.95,NE,49,0.0,6.0,69,0.00,,,0.00,WUHU216DAVISVP2,2013-04-11 09:35:00,
2013-04-11 04:40:00,33.3,24.3,29.94,North,360,4.0,5.0,69,0.00,,,0.00,WUHU216DAVISVP2,2013-04-11 09:40:00,
2013-04-11 04:45:00,33.5,23.4,29.95,NNE,30,2.0,4.0,66,0.00,,,0.00,WUHU216DAVISVP2,2013-04-11 09:45:00,
2013-04-11 04:50:00,33.9,23.4,29.95,NE,37,0.0,4.0,65,0.00,,,0.00,WUHU216DAVISVP2,2013-04-11 09:50:00,
2013-04-11 04:55:00,34.4,22.0,29.95,NNE,26,0.0,5.0,60,0.00,,,0.00,WUHU216DAVISVP2,2013-04-11 09:55:00,
2013-04-11 05:00:00,34.7,21.0,29.95,East,96,0.0,5.0,57,0.00,,,0.00,WUHU216DAVISVP2,2013-04-11 10:00:00,
2013-04-11 05:05:00,34.9,20.8,29.95,NE,51,0.0,3.0,56,0.00,,,0.00,WUHU216DAVISVP2,2013-04-11 10:05:00,
2013-04-11 05:10:00,35.0,20.5,29.94,ENE,71,0.0,4.0,55,0.00,,,0.00,WUHU216DAVISVP2,2013-04-11 10:10:00,
2013-04-11 05:15:00,35.0,20.0,29.94,NE,46,1.0,4.0,54,0.00,,,0.00,WUHU216DAVISVP2,2013-04-11 10:15:00,
2013-04-11 05:20:00,34.9,19.9,29.94,NE,49,0.0,5.0,54,0.00,,,0.00,WUHU216DAVISVP2,2013-04-11 10:20:00,
2013-04-11 05:25:00,34.8,20.3,29.94,NE,51,0.0,5.0,55,0.00,,,0.00,WUHU216DAVISVP2,2013-04-11 10:25:00,
2013-04-11 05:30:00,34.6,20.5,29.93,NE,49,0.0,0.0,56,0.00,,,0.00,WUHU216DAVISVP2,2013-04-11 10:30:00,
2013-04-11 05:35:00,34.4,20.8,29.93,NE,49,0.0,0.0,57,0.00,,,0.00,WUHU216DAVISVP2,2013-04-11 10:35:00,
2013-04-11 05:40:00,34.4,21.2,29.93,NE,43,1.0,3.0,58,0.00,,,0.00,WUHU216DAVISVP2,2013-04-11 10:40:00,
2013-04-11 05:45:00,34.3,21.5,29.93,NE,38,0.0,3.0,59,0.00,,,0.00,WUHU216DAVISVP2,2013-04-11 10:45:00,
2013-04-11 05:50:00,34.0,22.0,29.92,NNE,33,1.0,5.0,61,0.00,,,0.00,WUHU216DAVISVP2,2013-04-11 10:50:00,
2013-04-11 05:55:00,33.7,22.5,29.92,NNE,26,1.0,5.0,63,0.00,,,0.00,WUHU216DAVISVP2,2013-04-11 10:55:00,
2013-04-11 06:00:00,33.5,22.3,29.92,NNE,19,1.0,4.0,63,0.00,,,0.00,WUHU216DAVISVP2,2013-04-11 11:00:00,
2013-04-11 06:05:00,33.5,21.9,29.92,East,84,0.0,5.0,62,0.00,,,0.00,WUHU216DAVISVP2,2013-04-11 11:05:00,
2013-04-11 06:10:00,33.7,21.3,29.92,NE,44,1.0,5.0,60,0.00,,,0.00,WUHU216DAVISVP2,2013-04-11 11:10:00,
2013-04-11 06:15:00,33.8,21.8,29.92,ENE,71,1.0,4.0,61,0.00,,,0.00,WUHU216DAVISVP2,2013-04-11 11:15:00,
2013-04-11 06:20:00,33.7,21.7,29.92,ENE,75,1.0,4.0,61,0.00,,,0.00,WUHU216DAVISVP2,2013-04-11 11:20:00,
2013-04-11 06:25:00,33.6,21.6,29.91,ENE,71,2.0,4.0,61,0.00,,,0.00,WUHU216DAVISVP2,2013-04-11 11:25:00,
2013-04-11 06:30:00,33.5,21.1,29.91,NE,41,2.0,5.0,60,0.00,,,0.00,WUHU216DAVISVP2,2013-04-11 11:30:00,
2013-04-11 06:35:00,33.6,20.8,29.91,NE,37,0.0,5.0,59,0.00,,,0.00,WUHU216DAVISVP2,2013-04-11 11:35:00,
2013-04-11 06:40:00,33.5,21.1,29.91,NE,39,2.0,5.0,60,0.00,,,0.00,WUHU216DAVISVP2,2013-04-11 11:40:00,
2013-04-11 06:45:00,33.5,20.7,29.91,East,95,1.0,4.0,59,0.00,,,0.00,WUHU216DAVISVP2,2013-04-11 11:45:00,
2013-04-11 06:50:00,33.4,20.6,29.90,NNE,32,1.0,5.0,59,0.00,,,0.00,WUHU216DAVISVP2,2013-04-11 11:50:00,
2013-04-11 06:55:00,33.4,20.2,29.91,NE,43,1.0,5.0,58,0.00,,,0.00,WUHU216DAVISVP2,2013-04-11 11:55:00,
2013-04-11 07:00:00,33.3,19.7,29.90,NE,44,0.0,3.0,57,0.00,,,0.00,WUHU216DAVISVP2,2013-04-11 12:00:00,
2013-04-11 07:05:00,33.3,19.3,29.90,NNE,31,2.0,6.0,56,0.00,,,0.00,WUHU216DAVISVP2,2013-04-11 12:05:00,
2013-04-11 07:10:00,33.3,19.3,29.90,ENE,57,0.0,9.0,56,0.00,,,0.00,WUHU216DAVISVP2,2013-04-11 12:10:00,
2013-04-11 07:15:00,33.3,18.9,29.90,NNE,32,9.0,9.0,55,0.00,,,0.00,WUHU216DAVISVP2,2013-04-11 12:15:00,
2013-04-11 07:20:00,33.3,19.3,29.90,ENE,63,0.0,9.0,56,0.00,,,0.00,WUHU216DAVISVP2,2013-04-11 12:20:00,
2013-04-11 07:25:00,33.3,18.9,29.90,ENE,61,0.0,9.0,55,0.00,,,0.00,WUHU216DAVISVP2,2013-04-11 12:25:00,
2013-04-11 07:30:00,33.3,19.3,29.90,NE,53,0.0,4.0,56,0.00,,,0.00,WUHU216DAVISVP2,2013-04-11 12:30:00,
2013-04-11 07:35:00,33.2,19.2,29.90,NE,36,1.0,6.0,56,0.00,,,0.00,WUHU216DAVISVP2,2013-04-11 12:35:00,
2013-04-11 07:40:00,33.3,18.9,29.90,ENE,71,3.0,6.0,55,0.00,,,0.00,WUHU216DAVISVP2,2013-04-11 12:40:00,
2013-04-11 07:45:00,33.2,19.2,29.90,NE,41,1.0,5.0,56,0.00,,,0.00,WUHU216DAVISVP2,2013-04-11 12:45:00,
2013-04-11 07:50:00,33.2,19.2,29.90,East,80,1.0,5.0,56,0.00,,,0.00,WUHU216DAVISVP2,2013-04-11 12:50:00,
2013-04-11 07:55:00,33.2,19.6,29.90,ENE,78,1.0,5.0,57,0.00,,,0.00,WUHU216DAVISVP2,2013-04-11 12:55:00,
2013-04-11 08:00:00,33.2,20.0,29.90,ENE,78,0.0,3.0,58,0.00,,,0.00,WUHU216DAVISVP2,2013-04-11 13:00:00,
2013-04-11 08:05:00,33.2,20.0,29.90,ENE,78,0.0,2.0,58,0.00,,,0.00,WUHU216DAVISVP2,2013-04-11 13:05:00,
2013-04-11 08:10:00,33.2,19.6,29.90,NE,55,3.0,3.0,57,0.00,,,0.00,WUHU216DAVISVP2,2013-04-11 13:10:00,
2013-04-11 08:15:00,33.2,20.0,29.91,NE,44,2.0,4.0,58,0.00,,,0.00,WUHU216DAVISVP2,2013-04-11 13:15:00,
2013-04-11 08:20:00,33.2,20.5,29.91,NE,45,0.0,4.0,59,0.00,,,0.00,WUHU216DAVISVP2,2013-04-11 13:20:00,
2013-04-11 08:25:00,32.8,21.6,29.91,East,84,2.0,13.0,63,0.00,,,0.00,WUHU216DAVISVP2,2013-04-11 13:25:00,
2013-04-11 08:30:00,31.9,22.6,29.92,ESE,113,6.0,13.0,68,0.00,,,0.00,WUHU216DAVISVP2,2013-04-11 13:30:00,
2013-04-11 08:35:00,30.7,22.8,29.92,East,90,0.0,9.0,72,0.00,,,0.00,WUHU216DAVISVP2,2013-04-11 13:35:00,
2013-04-11 08:40:00,30.3,23.4,29.92,ESE,121,2.0,7.0,75,0.00,,,0.00,WUHU216DAVISVP2,2013-04-11 13:40:00,
2013-04-11 08:45:00,29.7,24.0,29.93,ESE,110,1.0,5.0,79,0.00,,,0.00,WUHU216DAVISVP2,2013-04-11 13:45:00,
2013-04-11 08:50:00,29.4,24.3,29.92,ESE,107,2.0,5.0,81,0.00,,,0.00,WUHU216DAVISVP2,2013-04-11 13:50:00,
2013-04-11 08:55:00,29.2,24.7,29.92,ESE,105,0.0,3.0,83,0.00,,,0.00,WUHU216DAVISVP2,2013-04-11 13:55:00,
2013-04-11 09:00:00,29.1,24.8,29.92,NE,50,0.0,4.0,84,0.00,,,0.00,WUHU216DAVISVP2,2013-04-11 14:00:00,
2013-04-11 09:05:00,29.1,24.8,29.91,NE,41,0.0,4.0,84,0.00,,,0.00,WUHU216DAVISVP2,2013-04-11 14:05:00,
2013-04-11 09:10:00,29.2,25.2,29.91,NNE,14,0.0,0.0,85,0.00,,,0.00,WUHU216DAVISVP2,2013-04-11 14:10:00,
2013-04-11 09:15:00,29.2,25.2,29.91,NNE,26,0.0,0.0,85,0.00,,,0.00,WUHU216DAVISVP2,2013-04-11 14:15:00,
2013-04-11 09:20:00,29.3,25.6,29.91,NNE,26,0.0,0.0,86,0.00,,,0.00,WUHU216DAVISVP2,2013-04-11 14:20:00,
2013-04-11 09:25:00,29.4,25.7,29.91,NNE,16,0.0,0.0,86,0.00,,,0.00,WUHU216DAVISVP2,2013-04-11 14:25:00,
2013-04-11 09:30:00,29.4,25.7,29.91,NE,47,0.0,0.0,86,0.00,,,0.00,WUHU216DAVISVP2,2013-04-11 14:30:00,
2013-04-11 09:35:00,29.4,26.0,29.91,NNE,26,0.0,5.0,87,0.00,,,0.00,WUHU216DAVISVP2,2013-04-11 14:35:00,
2013-04-11 09:40:00,29.3,25.6,29.92,NE,44,0.0,5.0,86,0.00,,,0.00,WUHU216DAVISVP2,2013-04-11 14:40:00,
2013-04-11 09:45:00,29.4,26.0,29.92,East,90,0.0,3.0,87,0.00,,,0.00,WUHU216DAVISVP2,2013-04-11 14:45:00,
2013-04-11 09:50:00,29.4,26.0,29.92,NE,36,0.0,3.0,87,0.00,,,0.00,WUHU216DAVISVP2,2013-04-11 14:50:00,
2013-04-11 09:55:00,29.2,25.8,29.92,NNE,32,2.0,6.0,87,0.00,,,0.00,WUHU216DAVISVP2,2013-04-11 14:55:00,
2013-04-11 10:00:00,29.2,25.8,29.92,NNE,28,0.0,6.0,87,0.00,,,0.00,WUHU216DAVISVP2,2013-04-11 15:00:00,
2013-04-11 10:05:00,29.2,25.8,29.92,NE,35,0.0,3.0,87,0.00,,,0.00,WUHU216DAVISVP2,2013-04-11 15:05:00,
2013-04-11 10:10:00,29.1,25.7,29.92,NNE,28,1.0,7.0,87,0.00,,,0.00,WUHU216DAVISVP2,2013-04-11 15:10:00,
2013-04-11 10:15:00,29.2,25.8,29.91,North,5,0.0,7.0,87,0.00,,,0.00,WUHU216DAVISVP2,2013-04-11 15:15:00,
2013-04-11 10:20:00,29.2,25.8,29.91,NE,38,7.0,7.0,87,0.00,,,0.00,WUHU216DAVISVP2,2013-04-11 15:20:00,
2013-04-11 10:25:00,29.2,25.8,29.91,NNE,17,1.0,10.0,87,0.00,,,0.00,WUHU216DAVISVP2,2013-04-11 15:25:00,
2013-04-11 10:30:00,29.2,25.8,29.91,NNE,17,5.0,10.0,87,0.00,,,0.00,WUHU216DAVISVP2,2013-04-11 15:30:00,
2013-04-11 10:35:00,29.2,25.8,29.91,NNE,31,9.0,11.0,87,0.00,,,0.00,WUHU216DAVISVP2,2013-04-11 15:35:00,
2013-04-11 10:40:00,29.2,26.0,29.91,NNE,25,6.0,11.0,88,0.00,,,0.00,WUHU216DAVISVP2,2013-04-11 15:40:00,
2013-04-11 10:45:00,29.2,26.0,29.90,North,10,6.0,10.0,88,0.00,,,0.00,WUHU216DAVISVP2,2013-04-11 15:45:00,
2013-04-11 10:50:00,29.1,25.9,29.91,North,5,4.0,11.0,88,0.00,,,0.00,WUHU216DAVISVP2,2013-04-11 15:50:00,
2013-04-11 10:55:00,29.2,26.0,29.90,NNE,20,3.0,11.0,88,0.00,,,0.00,WUHU216DAVISVP2,2013-04-11 15:55:00,
2013-04-11 11:00:00,29.1,25.9,29.90,NNE,25,8.0,10.0,88,0.00,,,0.00,WUHU216DAVISVP2,2013-04-11 16:00:00,
2013-04-11 11:05:00,29.0,25.9,29.90,North,5,4.0,10.0,88,0.00,,,0.00,WUHU216DAVISVP2,2013-04-11 16:05:00,
2013-04-11 11:10:00,29.0,25.9,29.90,NNE,19,2.0,10.0,88,0.00,,,0.00,WUHU216DAVISVP2,2013-04-11 16:10:00,
2013-04-11 11:15:00,29.0,25.9,29.90,North,9,5.0,9.0,88,0.00,,,0.00,WUHU216DAVISVP2,2013-04-11 16:15:00,
2013-04-11 11:20:00,29.0,25.9,29.91,NE,46,4.0,13.0,88,0.00,,,0.00,WUHU216DAVISVP2,2013-04-11 16:20:00,
2013-04-11 11:25:00,29.0,25.9,29.90,NNE,14,3.0,13.0,88,0.00,,,0.00,WUHU216DAVISVP2,2013-04-11 16:25:00,
2013-04-11 11:30:00,29.0,25.9,29.91,NNE,20,10.0,11.0,88,0.00,,,0.00,WUHU216DAVISVP2,2013-04-11 16:30:00,
2013-04-11 11:35:00,29.0,25.9,29.90,NE,45,2.0,11.0,88,0.00,,,0.00,WUHU216DAVISVP2,2013-04-11 16:35:00,
2013-04-11 11:40:00,29.2,26.0,29.91,NNE,28,2.0,11.0,88,0.00,,,0.00,WUHU216DAVISVP2,2013-04-11 16:40:00,
2013-04-11 11:45:00,29.1,25.9,29.91,NE,42,3.0,13.0,88,0.00,,,0.00,WUHU216DAVISVP2,2013-04-11 16:45:00,
2013-04-11 11:50:00,29.1,25.9,29.91,NNE,13,9.0,13.0,88,0.00,,,0.00,WUHU216DAVISVP2,2013-04-11 16:50:00,
2013-04-11 11:55:00,29.1,25.9,29.91,NNE,17,5.0,11.0,88,0.00,,,0.00,WUHU216DAVISVP2,2013-04-11 16:55:00,
2013-04-11 12:00:00,29.2,26.0,29.91,NNE,32,7.0,11.0,88,0.00,,,0.00,WUHU216DAVISVP2,2013-04-11 17:00:00,
2013-04-11 12:05:00,29.0,26.1,29.91,NNE,22,3.0,18.0,89,0.00,,,0.00,WUHU216DAVISVP2,2013-04-11 17:05:00,
2013-04-11 12:10:00,29.2,26.0,29.91,NE,36,2.0,18.0,88,0.00,,,0.00,WUHU216DAVISVP2,2013-04-11 17:10:00,
2013-04-11 12:15:00,29.3,26.1,29.91,NE,48,3.0,11.0,88,0.00,,,0.00,WUHU216DAVISVP2,2013-04-11 17:15:00,
2013-04-11 12:20:00,29.4,26.2,29.91,NE,40,2.0,12.0,88,0.00,,,0.00,WUHU216DAVISVP2,2013-04-11 17:20:00,
2013-04-11 12:25:00,29.4,26.2,29.91,North,9,1.0,12.0,88,0.00,,,0.00,WUHU216DAVISVP2,2013-04-11 17:25:00,
2013-04-11 12:30:00,29.6,26.7,29.90,NE,38,0.0,12.0,89,0.00,,,0.00,WUHU216DAVISVP2,2013-04-11 17:30:00,
2013-04-11 12:35:00,29.6,26.7,29.90,NNE,24,0.0,14.0,89,0.00,,,0.00,WUHU216DAVISVP2,2013-04-11 17:35:00,
2013-04-11 12:40:00,29.6,26.7,29.90,North,9,6.0,17.0,89,0.00,,,0.00,WUHU216DAVISVP2,2013-04-11 17:40:00,
2013-04-11 12:45:00,29.6,26.7,29.90,NE,44,3.0,17.0,89,0.00,,,0.00,WUHU216DAVISVP2,2013-04-11 17:45:00,
2013-04-11 12:50:00,29.7,26.8,29.89,NNE,17,1.0,17.0,89,0.00,,,0.00,WUHU216DAVISVP2,2013-04-11 17:50:00,
2013-04-11 12:55:00,29.6,26.7,29.89,NE,42,2.0,15.0,89,0.00,,,0.00,WUHU216DAVISVP2,2013-04-11 17:55:00,
2013-04-11 13:00:00,29.7,26.5,29.89,NE,42,1.0,15.0,88,0.00,,,0.00,WUHU216DAVISVP2,2013-04-11 18:00:00,
2013-04-11 13:05:00,29.7,26.5,29.89,NNE,13,7.0,15.0,88,0.00,,,0.00,WUHU216DAVISVP2,2013-04-11 18:05:00,
2013-04-11 13:10:00,29.5,26.6,29.89,North,360,7.0,15.0,89,0.00,,,0.00,WUHU216DAVISVP2,2013-04-11 18:10:00,
2013-04-11 13:15:00,29.5,26.6,29.89,NE,44,5.0,15.0,89,0.00,,,0.00,WUHU216DAVISVP2,2013-04-11 18:15:00,
2013-04-11 13:20:00,29.4,26.5,29.89,ENE,65,2.0,14.0,89,0.00,,,0.00,WUHU216DAVISVP2,2013-04-11 18:20:00,
2013-04-11 13:25:00,29.6,26.4,29.89,NE,36,4.0,14.0,88,0.00,,,0.00,WUHU216DAVISVP2,2013-04-11 18:25:00,
2013-04-11 13:30:00,29.6,26.4,29.88,North,9,11.0,11.0,88,0.00,,,0.00,WUHU216DAVISVP2,2013-04-11 18:30:00,
2013-04-11 13:35:00,29.7,26.5,29.88,NNE,26,6.0,14.0,88,0.00,,,0.00,WUHU216DAVISVP2,2013-04-11 18:35:00,
2013-04-11 13:40:00,29.6,26.4,29.88,NE,40,0.0,14.0,88,0.00,,,0.00,WUHU216DAVISVP2,2013-04-11 18:40:00,
2013-04-11 13:45:00,29.7,26.5,29.88,NNE,18,8.0,12.0,88,0.00,,,0.00,WUHU216DAVISVP2,2013-04-11 18:45:00,
2013-04-11 13:50:00,29.5,26.3,29.88,NE,44,5.0,12.0,88,0.00,,,0.00,WUHU216DAVISVP2,2013-04-11 18:50:00,
2013-04-11 13:55:00,29.5,26.3,29.88,NE,34,3.0,13.0,88,0.00,,,0.00,WUHU216DAVISVP2,2013-04-11 18:55:00,
2013-04-11 14:00:00,29.6,26.4,29.88,NE,36,5.0,13.0,88,0.00,,,0.00,WUHU216DAVISVP2,2013-04-11 19:00:00,
2013-04-11 14:05:00,29.6,26.4,29.87,NE,38,0.0,11.0,88,0.00,,,0.00,WUHU216DAVISVP2,2013-04-11 19:05:00,
2013-04-11 14:10:00,29.7,26.5,29.87,NNE,29,5.0,11.0,88,0.00,,,0.00,WUHU216DAVISVP2,2013-04-11 19:10:00,
2013-04-11 14:15:00,29.6,26.4,29.88,NE,36,5.0,12.0,88,0.00,,,0.00,WUHU216DAVISVP2,2013-04-11 19:15:00,
2013-04-11 14:20:00,29.7,26.5,29.88,North,360,7.0,12.0,88,0.00,,,0.00,WUHU216DAVISVP2,2013-04-11 19:20:00,
2013-04-11 14:25:00,29.8,26.6,29.88,NNE,19,3.0,11.0,88,0.00,,,0.00,WUHU216DAVISVP2,2013-04-11 19:25:00,
2013-04-11 14:30:00,29.8,26.6,29.88,NNE,26,3.0,13.0,88,0.00,,,0.00,WUHU216DAVISVP2,2013-04-11 19:30:00,
2013-04-11 14:35:00,29.9,26.7,29.88,NE,42,0.0,13.0,88,0.00,,,0.00,WUHU216DAVISVP2,2013-04-11 19:35:00,
2013-04-11 14:40:00,30.0,26.8,29.87,NNE,32,0.0,10.0,88,0.00,,,0.00,WUHU216DAVISVP2,2013-04-11 19:40:00,
2013-04-11 14:45:00,30.0,26.8,29.87,NE,44,3.0,9.0,88,0.00,,,0.00,WUHU216DAVISVP2,2013-04-11 19:45:00,
2013-04-11 14:50:00,29.9,26.7,29.87,NNE,24,6.0,13.0,88,0.00,,,0.00,WUHU216DAVISVP2,2013-04-11 19:50:00,
2013-04-11 14:55:00,30.0,26.8,29.87,NNE,13,7.0,13.0,88,0.00,,,0.00,WUHU216DAVISVP2,2013-04-11 19:55:00,
2013-04-11 15:00:00,30.1,26.9,29.87,North,10,4.0,12.0,88,0.00,,,0.00,WUHU216DAVISVP2,2013-04-11 20:00:00,
2013-04-11 15:05:00,30.1,26.7,29.88,NNE,28,2.0,15.0,87,0.00,,,0.00,WUHU216DAVISVP2,2013-04-11 20:05:00,
2013-04-11 15:10:00,30.1,26.7,29.87,NE,37,3.0,15.0,87,0.00,,,0.00,WUHU216DAVISVP2,2013-04-11 20:10:00,
2013-04-11 15:15:00,30.1,26.7,29.87,NE,38,3.0,10.0,87,0.00,,,0.00,WUHU216DAVISVP2,2013-04-11 20:15:00,
2013-04-11 15:20:00,30.1,26.7,29.87,NNE,20,2.0,10.0,87,0.00,,,0.00,WUHU216DAVISVP2,2013-04-11 20:20:00,
2013-04-11 15:25:00,30.0,26.6,29.87,NNE,25,3.0,12.0,87,0.00,,,0.00,WUHU216DAVISVP2,2013-04-11 20:25:00,
2013-04-11 15:30:00,29.9,26.5,29.87,NNE,18,4.0,15.0,87,0.00,,,0.00,WUHU216DAVISVP2,2013-04-11 20:30:00,
2013-04-11 15:35:00,29.9,26.5,29.87,NNE,26,1.0,15.0,87,0.00,,,0.00,WUHU216DAVISVP2,2013-04-11 20:35:00,
2013-04-11 15:40:00,29.9,26.2,29.87,NE,40,4.0,13.0,86,0.00,,,0.00,WUHU216DAVISVP2,2013-04-11 20:40:00,
2013-04-11 15:45:00,30.0,26.3,29.87,NE,48,2.0,13.0,86,0.00,,,0.00,WUHU216DAVISVP2,2013-04-11 20:45:00,
2013-04-11 15:50:00,30.1,26.4,29.87,NNW,331,6.0,14.0,86,0.00,,,0.00,WUHU216DAVISVP2,2013-04-11 20:50:00,
2013-04-11 15:55:00,30.1,26.4,29.87,NNE,12,10.0,15.0,86,0.00,,,0.00,WUHU216DAVISVP2,2013-04-11 20:55:00,
2013-04-11 16:00:00,30.2,26.5,29.86,NNE,30,3.0,15.0,86,0.00,,,0.00,WUHU216DAVISVP2,2013-04-11 21:00:00,
2013-04-11 16:05:00,30.1,26.4,29.86,NE,36,4.0,11.0,86,0.00,,,0.00,WUHU216DAVISVP2,2013-04-11 21:05:00,
2013-04-11 16:10:00,30.1,26.4,29.86,NNE,19,3.0,11.0,86,0.00,,,0.00,WUHU216DAVISVP2,2013-04-11 21:10:00,
2013-04-11 16:15:00,30.1,26.1,29.86,ENE,60,3.0,15.0,85,0.00,,,0.00,WUHU216DAVISVP2,2013-04-11 21:15:00,
2013-04-11 16:20:00,30.1,26.1,29.86,NE,38,6.0,15.0,85,0.00,,,0.00,WUHU216DAVISVP2,2013-04-11 21:20:00,
2013-04-11 16:25:00,30.2,26.2,29.87,NE,51,3.0,12.0,85,0.00,,,0.00,WUHU216DAVISVP2,2013-04-11 21:25:00,
2013-04-11 16:30:00,30.3,26.3,29.87,NE,46,1.0,12.0,85,0.00,,,0.00,WUHU216DAVISVP2,2013-04-11 21:30:00,
2013-04-11 16:36:00,30.3,26.3,29.87,NNE,24,3.0,11.0,85,0.00,,,0.00,WUHU216DAVISVP2,2013-04-11 21:36:00,
2013-04-11 16:41:00,30.3,26.3,29.87,NNE,30,4.0,11.0,85,0.00,,,0.00,WUHU216DAVISVP2,2013-04-11 21:41:00,
2013-04-11 16:46:00,30.5,26.5,29.87,NE,46,1.0,11.0,85,0.00,,,0.00,WUHU216DAVISVP2,2013-04-11 21:46:00,
2013-04-11 16:51:00,30.5,26.2,29.87,NE,42,3.0,11.0,84,0.00,,,0.00,WUHU216DAVISVP2,2013-04-11 21:51:00,
2013-04-11 16:56:00,30.5,26.2,29.87,NE,43,2.0,10.0,84,0.00,,,0.00,WUHU216DAVISVP2,2013-04-11 21:56:00,
2013-04-11 17:00:00,30.6,26.3,29.87,NNE,29,3.0,10.0,84,0.00,,,0.00,WUHU216DAVISVP2,2013-04-11 22:00:00,
2013-04-11 17:05:00,30.6,26.3,29.87,NE,36,2.0,8.0,84,0.00,,,0.00,WUHU216DAVISVP2,2013-04-11 22:05:00,
2013-04-11 17:11:00,30.6,26.3,29.87,North,11,3.0,9.0,84,0.00,,,0.00,WUHU216DAVISVP2,2013-04-11 22:11:00,
2013-04-11 17:16:00,30.6,26.3,29.87,NNE,17,2.0,10.0,84,0.00,,,0.00,WUHU216DAVISVP2,2013-04-11 22:16:00,
2013-04-11 17:21:00,30.7,26.4,29.87,NNE,24,3.0,10.0,84,0.00,,,0.00,WUHU216DAVISVP2,2013-04-11 22:21:00,
2013-04-11 17:26:00,30.7,26.4,29.87,NNE,29,2.0,9.0,84,0.00,,,0.00,WUHU216DAVISVP2,2013-04-11 22:26:00,
2013-04-11 17:31:00,30.7,26.1,29.87,ENE,65,3.0,10.0,83,0.00,,,0.00,WUHU216DAVISVP2,2013-04-11 22:31:00,
2013-04-11 17:36:00,30.7,26.1,29.87,NNE,13,5.0,10.0,83,0.00,,,0.00,WUHU216DAVISVP2,2013-04-11 22:36:00,
2013-04-11 17:41:00,30.8,26.2,29.88,NNE,17,0.0,10.0,83,0.00,,,0.00,WUHU216DAVISVP2,2013-04-11 22:41:00,
2013-04-11 17:45:00,30.7,26.4,29.88,NNE,17,3.0,6.0,84,0.00,,,0.00,WUHU216DAVISVP2,2013-04-11 22:45:00,
2013-04-11 17:50:00,30.7,26.4,29.88,NNE,25,4.0,10.0,84,0.00,,,0.00,WUHU216DAVISVP2,2013-04-11 22:50:00,
2013-04-11 17:55:00,30.6,26.3,29.87,North,5,4.0,11.0,84,0.00,,,0.00,WUHU216DAVISVP2,2013-04-11 22:55:00,
2013-04-11 18:00:00,30.6,26.3,29.87,NE,39,3.0,11.0,84,0.00,,,0.00,WUHU216DAVISVP2,2013-04-11 23:00:00,
2013-04-11 18:05:00,30.6,26.3,29.87,NNW,331,5.0,10.0,84,0.00,,,0.00,WUHU216DAVISVP2,2013-04-11 23:05:00,
2013-04-11 18:10:00,30.5,26.2,29.88,NNE,18,4.0,8.0,84,0.00,,,0.00,WUHU216DAVISVP2,2013-04-11 23:10:00,
2013-04-11 18:15:00,30.5,26.2,29.87,NNE,20,4.0,7.0,84,0.00,,,0.00,WUHU216DAVISVP2,2013-04-11 23:15:00,
2013-04-11 18:21:00,30.5,26.2,29.88,North,360,2.0,7.0,84,0.00,,,0.00,WUHU216DAVISVP2,2013-04-11 23:21:00,
2013-04-11 18:26:00,30.5,26.2,29.88,NNE,33,1.0,7.0,84,0.00,,,0.00,WUHU216DAVISVP2,2013-04-11 23:26:00,
2013-04-11 18:31:00,30.5,26.2,29.88,NNE,29,1.0,6.0,84,0.00,,,0.00,WUHU216DAVISVP2,2013-04-11 23:31:00,
2013-04-11 18:36:00,30.5,26.2,29.88,NE,34,3.0,9.0,84,0.00,,,0.00,WUHU216DAVISVP2,2013-04-11 23:36:00,
2013-04-11 18:41:00,30.4,26.1,29.88,NNE,19,3.0,11.0,84,0.00,,,0.00,WUHU216DAVISVP2,2013-04-11 23:41:00,
2013-04-11 18:46:00,30.4,26.1,29.88,NNE,17,3.0,11.0,84,0.00,,,0.00,WUHU216DAVISVP2,2013-04-11 23:46:00,
2013-04-11 18:51:00,30.3,26.0,29.88,NNE,14,4.0,7.0,84,0.00,,,0.00,WUHU216DAVISVP2,2013-04-11 23:51:00,
2013-04-11 18:56:00,30.3,26.0,29.88,NNE,18,5.0,7.0,84,0.00,,,0.00,WUHU216DAVISVP2,2013-04-11 23:56:00,
2013-04-11 19:01:00,30.3,26.0,29.88,NNE,26,5.0,7.0,84,0.00,,,0.00,WUHU216DAVISVP2,2013-04-12 00:01:00,
2013-04-11 19:06:00,30.2,25.9,29.88,NE,43,1.0,10.0,84,0.00,,,0.00,WUHU216DAVISVP2,2013-04-12 00:06:00,
2013-04-11 19:11:00,30.2,25.9,29.88,NNE,15,5.0,10.0,84,0.00,,,0.00,WUHU216DAVISVP2,2013-04-12 00:11:00,
2013-04-11 19:16:00,30.2,25.9,29.88,NE,35,3.0,6.0,84,0.00,,,0.00,WUHU216DAVISVP2,2013-04-12 00:16:00,
2013-04-11 19:21:00,30.1,25.8,29.88,North,5,3.0,6.0,84,0.00,,,0.00,WUHU216DAVISVP2,2013-04-12 00:21:00,
2013-04-11 19:26:00,30.1,25.8,29.88,NNE,27,2.0,6.0,84,0.00,,,0.00,WUHU216DAVISVP2,2013-04-12 00:26:00,
2013-04-11 19:31:00,30.1,25.8,29.88,NNE,19,2.0,6.0,84,0.00,,,0.00,WUHU216DAVISVP2,2013-04-12 00:31:00,
2013-04-11 19:36:00,30.1,25.8,29.88,NNE,17,6.0,10.0,84,0.00,,,0.00,WUHU216DAVISVP2,2013-04-12 00:36:00,
2013-04-11 19:40:00,30.1,25.8,29.88,NNE,30,3.0,10.0,84,0.00,,,0.00,WUHU216DAVISVP2,2013-04-12 00:40:00,
2013-04-11 19:45:00,30.0,25.7,29.88,NE,51,3.0,9.0,84,0.00,,,0.00,WUHU216DAVISVP2,2013-04-12 00:45:00,
2013-04-11 19:50:00,29.8,25.5,29.88,NNE,26,3.0,9.0,84,0.00,,,0.00,WUHU216DAVISVP2,2013-04-12 00:50:00,
2013-04-11 19:55:00,29.7,25.7,29.88,NE,43,2.0,8.0,85,0.00,,,0.00,WUHU216DAVISVP2,2013-04-12 00:55:00,
2013-04-11 20:01:00,29.7,25.7,29.88,NE,36,0.0,8.0,85,0.00,,,0.00,WUHU216DAVISVP2,2013-04-12 01:01:00,
2013-04-11 20:05:00,29.5,25.5,29.88,NNE,14,5.0,7.0,85,0.00,,,0.00,WUHU216DAVISVP2,2013-04-12 01:05:00,
2013-04-11 20:10:00,29.4,25.7,29.88,North,9,1.0,9.0,86,0.00,,,0.00,WUHU216DAVISVP2,2013-04-12 01:10:00,
2013-04-11 20:15:00,29.4,25.7,29.88,NE,34,2.0,11.0,86,0.00,,,0.00,WUHU216DAVISVP2,2013-04-12 01:15:00,
2013-04-11 20:20:00,29.3,25.6,29.88,NE,41,2.0,11.0,86,0.00,,,0.00,WUHU216DAVISVP2,2013-04-12 01:20:00,
2013-04-11 20:26:00,29.3,25.6,29.88,NNE,28,6.0,12.0,86,0.00,,,0.00,WUHU216DAVISVP2,2013-04-12 01:26:00,
2013-04-11 20:31:00,29.2,25.5,29.88,NE,41,3.0,12.0,86,0.00,,,0.00,WUHU216DAVISVP2,2013-04-12 01:31:00,
2013-04-11 20:36:00,29.2,25.5,29.88,NNE,30,6.0,11.0,86,0.00,,,0.00,WUHU216DAVISVP2,2013-04-12 01:36:00,
2013-04-11 20:41:00,29.2,25.5,29.88,North,11,3.0,10.0,86,0.00,,,0.00,WUHU216DAVISVP2,2013-04-12 01:41:00,
2013-04-11 20:46:00,29.1,25.4,29.88,NNE,22,4.0,10.0,86,0.00,,,0.00,WUHU216DAVISVP2,2013-04-12 01:46:00,
2013-04-11 20:51:00,29.1,25.4,29.88,NE,34,3.0,10.0,86,0.00,,,0.00,WUHU216DAVISVP2,2013-04-12 01:51:00,
2013-04-11 20:56:00,29.0,25.3,29.88,North,5,5.0,9.0,86,0.00,,,0.00,WUHU216DAVISVP2,2013-04-12 01:56:00,
2013-04-11 21:01:00,29.0,25.3,29.88,NNE,31,3.0,7.0,86,0.00,,,0.00,WUHU216DAVISVP2,2013-04-12 02:01:00,
2013-04-11 21:06:00,28.9,25.2,29.88,NE,46,3.0,7.0,86,0.00,,,0.00,WUHU216DAVISVP2,2013-04-12 02:06:00,
2013-04-11 21:11:00,28.8,25.1,29.88,NNE,17,1.0,7.0,86,0.00,,,0.00,WUHU216DAVISVP2,2013-04-12 02:11:00,
2013-04-11 21:16:00,28.8,25.1,29.88,NE,56,3.0,7.0,86,0.00,,,0.00,WUHU216DAVISVP2,2013-04-12 02:16:00,
2013-04-11 21:21:00,28.8,25.1,29.88,North,10,2.0,6.0,86,0.00,,,0.00,WUHU216DAVISVP2,2013-04-12 02:21:00,
2013-04-11 21:26:00,28.7,25.0,29.88,North,360,3.0,6.0,86,0.00,,,0.00,WUHU216DAVISVP2,2013-04-12 02:26:00,
2013-04-11 21:31:00,28.6,24.9,29.88,North,5,2.0,6.0,86,0.00,,,0.00,WUHU216DAVISVP2,2013-04-12 02:31:00,
2013-04-11 21:36:00,28.6,24.9,29.88,NE,35,2.0,7.0,86,0.00,,,0.00,WUHU216DAVISVP2,2013-04-12 02:36:00,
2013-04-11 21:41:00,28.5,24.8,29.88,NNE,33,1.0,10.0,86,0.00,,,0.00,WUHU216DAVISVP2,2013-04-12 02:41:00,
2013-04-11 21:46:00,28.5,24.8,29.88,NNE,18,1.0,10.0,86,0.00,,,0.00,WUHU216DAVISVP2,2013-04-12 02:46:00,
2013-04-11 21:51:00,28.5,24.8,29.88,NNE,16,0.0,6.0,86,0.00,,,0.00,WUHU216DAVISVP2,2013-04-12 02:51:00,
2013-04-11 21:56:00,28.5,24.8,29.88,North,360,3.0,9.0,86,0.00,,,0.00,WUHU216DAVISVP2,2013-04-12 02:56:00,
2013-04-11 22:01:00,28.5,24.8,29.88,NNE,30,0.0,9.0,86,0.00,,,0.00,WUHU216DAVISVP2,2013-04-12 03:01:00,
2013-04-11 22:06:00,28.4,24.7,29.88,North,360,0.0,6.0,86,0.00,,,0.00,WUHU216DAVISVP2,2013-04-12 03:06:00,
2013-04-11 22:11:00,28.4,24.7,29.89,NNE,15,0.0,6.0,86,0.00,,,0.00,WUHU216DAVISVP2,2013-04-12 03:11:00,
2013-04-11 22:16:00,28.4,24.7,29.89,NNE,15,3.0,7.0,86,0.00,,,0.00,WUHU216DAVISVP2,2013-04-12 03:16:00,
2013-04-11 22:21:00,28.4,25.0,29.89,North,10,0.0,7.0,87,0.00,,,0.00,WUHU216DAVISVP2,2013-04-12 03:21:00,
2013-04-11 22:26:00,28.4,25.0,29.89,NNE,17,0.0,8.0,87,0.00,,,0.00,WUHU216DAVISVP2,2013-04-12 03:26:00,
2013-04-11 22:31:00,28.4,25.0,29.89,NNE,15,2.0,8.0,87,0.00,,,0.00,WUHU216DAVISVP2,2013-04-12 03:31:00,
2013-04-11 22:36:00,28.4,25.0,29.89,NNE,18,4.0,5.0,87,0.00,,,0.00,WUHU216DAVISVP2,2013-04-12 03:36:00,
2013-04-11 22:41:00,28.3,24.9,29.89,North,9,2.0,9.0,87,0.00,,,0.00,WUHU216DAVISVP2,2013-04-12 03:41:00,
2013-04-11 22:46:00,28.3,24.6,29.89,NNE,21,3.0,9.0,86,0.00,,,0.00,WUHU216DAVISVP2,2013-04-12 03:46:00,
2013-04-11 22:51:00,28.2,24.5,29.89,North,5,4.0,6.0,86,0.00,,,0.00,WUHU216DAVISVP2,2013-04-12 03:51:00,
2013-04-11 22:56:00,28.2,24.5,29.89,North,360,3.0,9.0,86,0.00,,,0.00,WUHU216DAVISVP2,2013-04-12 03:56:00,
2013-04-11 23:00:00,28.2,24.5,29.89,North,10,8.0,9.0,86,0.00,,,0.00,WUHU216DAVISVP2,2013-04-12 04:00:00,
2013-04-11 23:05:00,28.2,24.5,29.89,NNE,19,1.0,8.0,86,0.00,,,0.00,WUHU216DAVISVP2,2013-04-12 04:05:00,
2013-04-11 23:10:00,28.2,24.5,29.89,NNE,13,2.0,7.0,86,0.00,,,0.00,WUHU216DAVISVP2,2013-04-12 04:10:00,
2013-04-11 23:15:00,28.1,24.4,29.89,NE,44,2.0,7.0,86,0.00,,,0.00,WUHU216DAVISVP2,2013-04-12 04:15:00,
2013-04-11 23:20:00,28.1,24.4,29.89,North,360,4.0,9.0,86,0.00,,,0.00,WUHU216DAVISVP2,2013-04-12 04:20:00,
2013-04-11 23:25:00,28.1,24.4,29.89,North,10,1.0,9.0,86,0.00,,,0.00,WUHU216DAVISVP2,2013-04-12 04:25:00,
2013-04-11 23:30:00,28.1,24.4,29.89,North,360,0.0,7.0,86,0.00,,,0.00,WUHU216DAVISVP2,2013-04-12 04:30:00,
2013-04-11 23:35:00,28.1,24.4,29.89,NE,36,3.0,7.0,86,0.00,,,0.00,WUHU216DAVISVP2,2013-04-12 04:35:00,
2013-04-11 23:40:00,28.1,24.4,29.89,NNE,21,2.0,7.0,86,0.00,,,0.00,WUHU216DAVISVP2,2013-04-12 04:40:00,
2013-04-11 23:45:00,28.1,24.4,29.89,NNE,26,4.0,7.0,86,0.00,,,0.00,WUHU216DAVISVP2,2013-04-12 04:45:00,
2013-04-11 23:50:00,28.0,24.3,29.89,North,9,2.0,7.0,86,0.00,,,0.00,WUHU216DAVISVP2,2013-04-12 04:50:00,
2013-04-11 23:55:00,28.0,24.3,29.89,North,5,1.0,7.0,86,0.00,,,0.00,WUHU216DAVISVP2,2013-04-12 04:55:00,